This is the latest recevied weather packets stored in our database for station/object DM1MT. If no packets are shown the sender has not sent any weather packets the latest 10 day(s).
| Time | Temp. | Humidity | Pressure | Rain* | Wind** | Luminosity | Snow |
|---|---|---|---|---|---|---|---|
| 1777535323 | 11.11° C | 34% | 1020.8 hPa | 0 mm | - | 173 W/m² | - |
| 1777531783 | 9.44° C | 38% | 1020.6 hPa | 0 mm | - | 108 W/m² | - |
| 1777526916 | 6.11° C | 44% | 1020.4 hPa | 0 mm | - | 33 W/m² | - |
| 1777525699 | 6.11° C | 45% | 1020.4 hPa | 0 mm | - | 26 W/m² | - |
| 1777522715 | 6.11° C | 45% | 1019.9 hPa | 0 mm | - | 5 W/m² | - |
| 1777522175 | 5.56° C | 45% | 1019.8 hPa | 0 mm | - | 1 W/m² | - |
| 1777517899 | 6.67° C | 45% | 1019.8 hPa | 0 mm | - | 0 W/m² | - |
| 1777516076 | 7.22° C | 43% | 1019.5 hPa | 0 mm | - | 0 W/m² | - |
| 1777511283 | 7.78° C | 42% | 1019.3 hPa | 0 mm | - | 0 W/m² | - |
| 1777508279 | 8.33° C | 42% | 1019 hPa | 0 mm | - | 0 W/m² | - |
| 1777506535 | 8.33° C | 42% | 1018.9 hPa | 0 mm | - | 0 W/m² | - |
| 1777505962 | 8.89° C | 42% | 1019 hPa | 0 mm | - | 0 W/m² | - |
| 1777505279 | 8.89° C | 42% | 1018.8 hPa | 0 mm | - | 0 W/m² | - |
| 1777503475 | 9.44° C | 42% | 1018.8 hPa | 0 mm | - | 0 W/m² | - |
| 1777501675 | 9.44° C | 42% | 1018.7 hPa | 0 mm | - | 0 W/m² | - |
| 1777498195 | 10.56° C | 43% | 1018.2 hPa | 0 mm | - | 0 W/m² | - |
| 1777493899 | 11.67° C | 39% | 1017.7 hPa | 0 mm | - | 0 W/m² | - |
| 1777486691 | 15.56° C | 33% | 1015.6 hPa | 0 mm | - | 47 W/m² | - |
| 1777485495 | 16.67° C | 33% | 1015.2 hPa | 0 mm | - | 103 W/m² | - |
| 1777483680 | 17.22° C | 33% | 1015.1 hPa | 0 mm | - | 159 W/m² | - |
| 1777482542 | 17.78° C | 32% | 1014.9 hPa | 0 mm | - | 192 W/m² | - |
| 1777478314 | 18.89° C | 30% | 1014.6 hPa | 0 mm | - | 273 W/m² | - |
| 1777477700 | 18.89° C | 30% | 1014.6 hPa | 0 mm | - | 284 W/m² | - |
| 1777475899 | 19.44° C | 29% | 1014.6 hPa | 0 mm | - | 305 W/m² | - |
| 1777466239 | 18.33° C | 25% | 1014.8 hPa | 0 mm | - | 360 W/m² | - |
* Rain latest hour (hover to see other rain measurements)
** Current wind speed in m/s (hover to see current wind gust speed)